createdAt,value
2018-06-12T00:01:20.487Z,62.60
2018-06-12T00:03:48.047Z,62.90
2018-06-12T00:06:15.627Z,63.30
2018-06-12T00:08:43.166Z,63.00
2018-06-12T00:11:10.724Z,62.90
2018-06-12T00:13:38.235Z,62.70
2018-06-12T00:16:05.799Z,62.40
2018-06-12T00:18:33.355Z,62.60
2018-06-12T00:23:28.591Z,62.60
2018-06-12T00:28:23.787Z,62.80
2018-06-12T00:30:51.338Z,62.70
2018-06-12T00:33:19.104Z,62.60
2018-06-12T00:35:46.692Z,62.60
2018-06-12T00:38:14.239Z,62.40
2018-06-12T00:40:42.334Z,62.50
2018-06-12T00:43:10.283Z,62.70
2018-06-12T00:45:37.912Z,62.70
2018-06-12T00:48:05.576Z,62.70
2018-06-12T00:50:33.132Z,62.80
2018-06-12T00:55:28.387Z,63.00
2018-06-12T00:57:55.924Z,63.10
2018-06-12T01:00:23.549Z,63.20
2018-06-12T01:02:51.207Z,63.30
2018-06-12T01:05:18.787Z,63.60
2018-06-12T01:07:46.339Z,63.90
2018-06-12T01:10:13.907Z,63.80
2018-06-12T01:12:41.586Z,64.10
2018-06-12T01:17:36.830Z,64.60
2018-06-12T01:20:04.456Z,64.90
2018-06-12T01:22:32.077Z,65.20
2018-06-12T01:24:59.818Z,65.30
2018-06-12T01:27:27.383Z,65.80
2018-06-12T01:29:54.968Z,66.00
2018-06-12T01:32:22.539Z,66.20
2018-06-12T01:34:50.092Z,66.10
2018-06-12T01:37:17.771Z,66.90
2018-06-12T01:39:45.375Z,67.50
2018-06-12T01:42:12.944Z,68.00
2018-06-12T01:44:40.533Z,68.70
2018-06-12T01:47:08.231Z,69.70
2018-06-12T01:49:35.776Z,70.70
2018-06-12T01:52:03.334Z,71.70
2018-06-12T01:54:30.949Z,72.50
2018-06-12T01:56:58.596Z,73.30
2018-06-12T01:59:26.379Z,73.20
2018-06-12T02:01:54.022Z,73.30
2018-06-12T02:04:21.738Z,73.90
2018-06-12T02:06:51.480Z,74.30
2018-06-12T02:09:19.442Z,74.90
2018-06-12T02:11:47.123Z,75.00
2018-06-12T02:14:14.690Z,75.30
2018-06-12T02:16:42.308Z,75.60
2018-06-12T02:19:09.988Z,75.70
2018-06-12T02:21:37.564Z,75.90
2018-06-12T02:24:05.307Z,76.10
2018-06-12T02:26:32.898Z,76.00
2018-06-12T02:29:00.476Z,76.00
2018-06-12T02:31:28.024Z,75.80
2018-06-12T02:33:55.625Z,75.90
2018-06-12T02:36:23.217Z,75.80
2018-06-12T02:38:50.839Z,75.60
2018-06-12T02:41:18.414Z,75.60
2018-06-12T02:43:45.988Z,75.50
2018-06-12T02:46:13.631Z,75.50
2018-06-12T02:48:41.237Z,75.60
2018-06-12T02:51:08.883Z,75.60
2018-06-12T02:53:36.459Z,75.70
2018-06-12T02:56:04.305Z,75.80
2018-06-12T02:58:31.897Z,75.90
2018-06-12T03:00:59.465Z,75.90
2018-06-12T03:03:27.126Z,76.00
2018-06-12T03:05:55.053Z,76.10
2018-06-12T03:08:22.641Z,76.00
2018-06-12T03:10:50.224Z,76.00
2018-06-12T03:13:17.860Z,76.00
2018-06-12T03:15:45.524Z,76.00
2018-06-12T03:18:13.112Z,75.90
2018-06-12T03:20:44.109Z,75.90
2018-06-12T03:23:11.716Z,75.90
2018-06-12T03:25:39.387Z,75.90
2018-06-12T03:28:07.323Z,75.90
2018-06-12T03:30:34.925Z,75.80
2018-06-12T03:33:02.519Z,75.80
2018-06-12T03:35:30.083Z,75.70
2018-06-12T03:37:57.699Z,75.70
2018-06-12T03:40:25.289Z,75.60
2018-06-12T03:42:52.934Z,75.60
2018-06-12T03:45:20.550Z,75.50
2018-06-12T03:47:48.144Z,75.30
2018-06-12T03:50:15.820Z,75.30
2018-06-12T03:52:43.415Z,75.20
2018-06-12T03:55:11.091Z,75.20
2018-06-12T03:57:38.765Z,75.10
2018-06-12T04:00:06.463Z,75.20
2018-06-12T04:02:34.249Z,75.10
2018-06-12T04:05:01.945Z,75.00
2018-06-12T04:07:29.751Z,74.90
2018-06-12T04:09:57.352Z,74.90
2018-06-12T04:12:24.988Z,74.80
2018-06-12T04:14:52.740Z,74.70
2018-06-12T04:17:20.392Z,74.60
2018-06-12T04:19:47.971Z,74.40
2018-06-12T04:22:15.529Z,74.30
2018-06-12T04:24:43.161Z,74.20
2018-06-12T04:27:10.785Z,74.10
2018-06-12T04:29:38.443Z,74.00
2018-06-12T04:32:06.068Z,73.90
2018-06-12T04:34:33.635Z,73.80
2018-06-12T04:37:01.219Z,73.70
2018-06-12T04:39:28.800Z,73.60
2018-06-12T04:41:56.435Z,73.60
2018-06-12T04:44:24.036Z,73.60
2018-06-12T04:46:51.673Z,73.60
2018-06-12T04:49:19.344Z,73.50
2018-06-12T04:51:46.973Z,73.50
2018-06-12T04:54:14.545Z,73.40
2018-06-12T04:56:42.184Z,74.00
2018-06-12T04:59:09.816Z,73.20
2018-06-12T05:01:38.033Z,72.90
2018-06-12T05:04:05.646Z,72.70
2018-06-12T05:06:33.251Z,72.50
2018-06-12T05:09:00.868Z,72.50
2018-06-12T05:11:28.484Z,72.40
2018-06-12T05:13:56.130Z,72.40
2018-06-12T05:16:23.760Z,72.30
2018-06-12T05:18:51.390Z,72.40
2018-06-12T05:21:19.100Z,72.20
2018-06-12T05:23:46.732Z,72.00
2018-06-12T05:26:14.341Z,71.90
2018-06-12T05:28:41.917Z,72.00
2018-06-12T05:31:09.534Z,71.80
2018-06-12T05:33:38.132Z,71.60
2018-06-12T05:36:05.711Z,71.40
2018-06-12T05:38:33.382Z,71.20
2018-06-12T05:41:01.000Z,71.20
2018-06-12T06:03:10.334Z,71.20
2018-06-12T06:05:38.852Z,71.10
2018-06-12T06:08:06.461Z,72.00
2018-06-12T06:10:34.072Z,72.40
2018-06-12T06:13:01.830Z,72.50
2018-06-12T06:15:29.416Z,72.40
2018-06-12T06:17:57.203Z,72.40
2018-06-12T06:20:24.809Z,73.10
2018-06-12T06:22:52.400Z,72.30
2018-06-12T06:25:20.017Z,72.20
2018-06-12T06:27:47.649Z,72.00
2018-06-12T06:30:15.314Z,71.80
2018-06-12T06:32:42.916Z,71.50
2018-06-12T06:35:10.516Z,71.30
2018-06-12T06:37:38.106Z,71.80
2018-06-12T06:40:05.751Z,70.90
2018-06-12T06:42:33.402Z,70.70
2018-06-12T06:45:01.036Z,70.40
2018-06-12T06:47:28.768Z,70.20
2018-06-12T06:49:56.364Z,70.10
2018-06-12T06:52:24.079Z,70.20
2018-06-12T06:54:51.744Z,70.20
2018-06-12T06:57:19.403Z,70.30
2018-06-12T06:59:47.042Z,70.40
2018-06-12T07:02:14.632Z,70.40
2018-06-12T07:04:42.239Z,70.20
2018-06-12T07:07:10.110Z,70.10
2018-06-12T07:09:37.724Z,70.60
2018-06-12T07:12:05.401Z,69.60
2018-06-12T07:14:33.265Z,69.30
2018-06-12T07:17:00.983Z,69.20
2018-06-12T07:19:28.699Z,69.00
2018-06-12T07:21:56.255Z,68.80
2018-06-12T07:24:23.913Z,68.50
2018-06-12T07:26:51.573Z,68.30
2018-06-12T07:29:19.357Z,68.10
2018-06-12T07:31:46.967Z,67.70
2018-06-12T07:34:14.566Z,67.40
2018-06-12T07:36:42.195Z,67.30
2018-06-12T07:39:09.792Z,67.10
2018-06-12T07:41:37.875Z,67.40
2018-06-12T07:44:06.499Z,66.80
2018-06-12T07:46:34.073Z,66.90
2018-06-12T07:49:01.741Z,66.70
2018-06-12T07:51:29.353Z,66.70
2018-06-12T07:53:56.959Z,66.50
2018-06-12T07:56:24.574Z,66.20
2018-06-12T08:01:19.844Z,65.40
2018-06-12T08:03:47.496Z,65.00
2018-06-12T08:06:15.113Z,64.90
2018-06-12T08:08:42.675Z,64.60
2018-06-12T08:11:10.284Z,64.30
2018-06-12T08:13:37.865Z,64.10
2018-06-12T08:16:05.472Z,64.00
2018-06-12T08:18:33.103Z,64.10
2018-06-12T08:21:00.692Z,63.90
2018-06-12T08:23:28.300Z,63.70
2018-06-12T08:25:55.875Z,63.50
2018-06-12T08:28:23.543Z,63.30
2018-06-12T08:30:51.130Z,62.90
2018-06-12T08:33:18.741Z,62.70
2018-06-12T08:35:46.323Z,62.20
2018-06-12T08:38:13.912Z,62.00
2018-06-12T08:40:41.483Z,61.80
2018-06-12T08:43:09.440Z,61.50
2018-06-12T08:45:37.097Z,61.60
2018-06-12T08:48:04.864Z,62.50
2018-06-12T08:53:00.240Z,61.80
2018-06-12T08:55:27.843Z,61.50
2018-06-12T08:57:55.472Z,61.20
2018-06-12T09:00:23.098Z,61.00
2018-06-12T09:02:50.684Z,61.00
2018-06-12T09:05:18.256Z,60.80
2018-06-12T09:07:45.966Z,60.40
2018-06-12T09:10:13.568Z,60.00
2018-06-12T09:12:41.172Z,59.90
2018-06-12T09:15:08.762Z,59.70
2018-06-12T09:17:36.379Z,59.50
2018-06-12T09:20:04.156Z,59.40
2018-06-12T09:24:59.917Z,59.10
2018-06-12T09:27:27.542Z,58.80
2018-06-12T09:29:55.136Z,58.50
2018-06-12T09:32:22.713Z,58.30
2018-06-12T09:34:50.288Z,58.20
2018-06-12T09:37:17.887Z,58.00
2018-06-12T09:39:45.568Z,57.70
2018-06-12T09:42:14.228Z,57.40
2018-06-12T09:44:41.789Z,57.10
2018-06-12T09:47:09.387Z,56.80
2018-06-12T09:49:36.970Z,56.60
2018-06-12T09:52:04.628Z,56.20
2018-06-12T09:54:32.300Z,56.40
2018-06-12T09:56:59.964Z,55.50
2018-06-12T09:59:27.604Z,55.10
2018-06-12T10:01:55.187Z,54.70
2018-06-12T10:04:22.827Z,54.50
2018-06-12T10:06:50.448Z,54.50
2018-06-12T10:09:18.072Z,54.50
2018-06-12T10:11:45.696Z,54.50
2018-06-12T10:14:13.287Z,54.30
2018-06-12T10:16:40.872Z,54.20
2018-06-12T10:19:08.459Z,54.20
2018-06-12T10:21:36.016Z,54.30
2018-06-12T10:24:03.756Z,54.60
2018-06-12T10:26:31.355Z,54.50
2018-06-12T10:28:58.969Z,54.70
2018-06-12T10:31:26.637Z,54.70
2018-06-12T10:33:54.209Z,54.50
2018-06-12T10:36:21.830Z,54.30
2018-06-12T10:38:49.682Z,53.90
2018-06-12T10:41:17.301Z,53.80
2018-06-12T10:43:44.958Z,53.60
2018-06-12T10:46:12.608Z,53.20
2018-06-12T10:48:40.240Z,52.70
2018-06-12T10:51:07.944Z,52.60
2018-06-12T10:53:35.509Z,52.80
2018-06-12T10:56:03.175Z,52.80
2018-06-12T10:58:30.743Z,52.80
2018-06-12T11:00:58.372Z,52.80
2018-06-12T11:03:26.001Z,52.80
2018-06-12T11:05:53.696Z,52.80
2018-06-12T11:08:21.271Z,52.70
2018-06-12T11:10:48.878Z,52.40
2018-06-12T11:13:16.504Z,52.30
2018-06-12T11:15:44.088Z,52.30
2018-06-12T11:18:11.739Z,52.80
2018-06-12T11:20:39.328Z,52.20
2018-06-12T11:23:06.935Z,52.40
2018-06-12T11:25:34.516Z,52.70
2018-06-12T11:28:02.232Z,52.90
2018-06-12T11:33:04.304Z,53.00
2018-06-12T11:35:31.810Z,53.00
2018-06-12T11:37:59.367Z,53.00
2018-06-12T11:40:27.784Z,52.70
2018-06-12T11:42:55.351Z,52.60
2018-06-12T11:45:22.988Z,52.30
2018-06-12T11:47:50.573Z,51.90
2018-06-12T11:50:18.979Z,51.30
2018-06-12T11:52:46.604Z,50.90
2018-06-12T11:55:20.300Z,50.30
2018-06-12T11:57:47.895Z,49.70
2018-06-12T12:00:15.533Z,49.10
2018-06-12T12:02:43.144Z,48.60
2018-06-12T12:05:10.714Z,48.00
2018-06-12T12:07:38.389Z,47.80
2018-06-12T12:10:05.996Z,47.50
2018-06-12T12:12:33.859Z,47.80
2018-06-12T12:15:01.501Z,46.80
2018-06-12T12:17:29.055Z,46.30
2018-06-12T12:19:56.665Z,45.80
2018-06-12T12:22:24.228Z,45.50
2018-06-12T12:27:19.435Z,45.40
2018-06-12T12:29:47.302Z,45.60
2018-06-12T12:32:14.885Z,45.20
2018-06-12T12:34:42.512Z,45.00
2018-06-12T12:37:10.076Z,44.90
2018-06-12T12:39:37.639Z,44.60
2018-06-12T12:42:05.215Z,44.50
2018-06-12T12:44:32.768Z,44.10
2018-06-12T12:47:00.328Z,43.70
2018-06-12T12:49:27.895Z,43.60
2018-06-12T12:51:55.513Z,43.60
2018-06-12T12:54:23.041Z,43.70
2018-06-12T12:56:50.661Z,44.30
2018-06-12T12:59:18.292Z,43.50
2018-06-12T13:01:45.903Z,43.20
2018-06-12T13:04:13.888Z,42.70
2018-06-12T13:06:41.484Z,42.30
2018-06-12T13:09:09.113Z,41.90
2018-06-12T13:11:36.779Z,41.40
2018-06-12T13:14:04.405Z,41.20
2018-06-12T13:16:31.964Z,41.10
2018-06-12T13:18:59.615Z,40.90
2018-06-12T13:21:27.210Z,41.20
2018-06-12T13:23:54.768Z,41.30
2018-06-12T13:26:22.344Z,41.40
2018-06-12T13:28:49.905Z,41.20
2018-06-12T13:31:17.511Z,41.40
2018-06-12T13:33:45.110Z,41.70
2018-06-12T13:36:13.385Z,41.40
2018-06-12T13:38:41.582Z,41.60
2018-06-12T13:41:09.374Z,41.50
2018-06-12T13:43:37.004Z,41.50
2018-06-12T13:46:04.979Z,41.40
2018-06-12T13:48:32.720Z,41.40
2018-06-12T13:51:00.393Z,41.20
2018-06-12T13:53:28.226Z,41.20
2018-06-12T13:55:55.849Z,41.00
2018-06-12T13:58:23.791Z,41.10
2018-06-12T14:00:51.435Z,41.10
2018-06-12T14:03:18.992Z,41.20
2018-06-12T14:05:47.520Z,41.20
2018-06-12T14:08:15.422Z,41.10
2018-06-12T14:10:43.346Z,41.00
2018-06-12T14:13:11.010Z,41.10
2018-06-12T14:18:06.352Z,41.20
2018-06-12T14:20:33.903Z,41.40
2018-06-12T14:23:01.630Z,41.40
2018-06-12T14:25:29.335Z,41.40
2018-06-12T14:27:56.988Z,41.20
2018-06-12T14:30:24.569Z,41.30
2018-06-12T14:32:52.113Z,41.20
2018-06-12T14:35:19.689Z,41.20
2018-06-12T14:37:48.053Z,41.00
2018-06-12T14:40:15.706Z,40.80
2018-06-12T14:42:43.257Z,40.80
2018-06-12T14:45:10.882Z,40.90
2018-06-12T14:47:38.465Z,40.80
2018-06-12T14:50:06.059Z,40.70
2018-06-12T14:52:33.688Z,40.80
2018-06-12T14:55:01.275Z,40.70
2018-06-12T14:57:28.860Z,40.60
2018-06-12T14:59:56.497Z,40.60
2018-06-12T15:02:24.167Z,41.10
2018-06-12T15:04:51.752Z,40.80
2018-06-12T15:07:19.335Z,40.80
2018-06-12T15:09:46.992Z,40.90
2018-06-12T15:12:14.557Z,41.00
2018-06-12T15:14:42.131Z,40.90
2018-06-12T15:17:09.728Z,40.70
2018-06-12T15:19:37.419Z,40.70
2018-06-12T15:22:05.014Z,40.70
2018-06-12T15:24:32.756Z,40.60
2018-06-12T15:27:00.377Z,40.60
2018-06-12T15:29:28.103Z,40.70
2018-06-12T15:31:55.706Z,40.70
2018-06-12T15:34:23.317Z,40.80
2018-06-12T15:36:50.905Z,40.90
2018-06-12T15:39:19.834Z,41.00
2018-06-12T15:41:47.508Z,41.00
2018-06-12T15:44:15.092Z,41.80
2018-06-12T15:46:42.696Z,41.30
2018-06-12T15:49:10.328Z,41.30
2018-06-12T15:56:33.789Z,41.40
2018-06-12T15:59:01.452Z,41.40
2018-06-12T16:01:29.072Z,41.50
2018-06-12T16:03:56.667Z,41.40
2018-06-12T16:06:24.360Z,41.20
2018-06-12T16:08:51.956Z,41.00
2018-06-12T16:11:19.596Z,41.10
2018-06-12T16:13:47.187Z,41.30
2018-06-12T16:16:14.790Z,41.40
2018-06-12T16:18:42.383Z,41.50
2018-06-12T16:21:10.017Z,41.60
2018-06-12T16:23:37.591Z,41.70
2018-06-12T16:26:05.281Z,41.80
2018-06-12T16:31:00.497Z,42.10
2018-06-12T16:33:28.146Z,42.10
2018-06-12T16:35:55.795Z,42.10
2018-06-12T16:38:23.408Z,42.00
2018-06-12T16:40:51.329Z,41.80
2018-06-12T16:43:18.976Z,41.70
2018-06-12T16:45:46.628Z,41.60
2018-06-12T16:48:14.240Z,41.50
2018-06-12T16:50:41.857Z,41.50
2018-06-12T16:53:09.451Z,41.30
2018-06-12T16:55:37.037Z,41.30
2018-06-12T16:58:04.716Z,41.20
2018-06-12T17:00:32.396Z,41.00
2018-06-12T17:02:59.999Z,41.00
2018-06-12T17:05:27.960Z,40.90
2018-06-12T17:07:55.613Z,40.90
2018-06-12T17:10:23.257Z,40.90
2018-06-12T17:12:50.963Z,40.70
2018-06-12T17:15:18.548Z,40.60
2018-06-12T17:17:46.274Z,40.50
2018-06-12T17:20:13.964Z,40.30
2018-06-12T17:22:41.624Z,40.30
2018-06-12T17:25:09.299Z,40.40
2018-06-12T17:27:36.992Z,40.50
2018-06-12T17:30:05.296Z,40.60
2018-06-12T17:32:32.972Z,40.60
2018-06-12T17:35:00.628Z,40.70
2018-06-12T17:37:28.328Z,40.70
2018-06-12T17:39:55.983Z,40.90
2018-06-12T17:42:23.793Z,40.90
2018-06-12T17:44:51.475Z,40.90
2018-06-12T17:47:19.200Z,40.80
2018-06-12T17:49:46.883Z,40.80
2018-06-12T17:52:14.487Z,40.80
2018-06-12T17:57:09.853Z,41.20
2018-06-12T17:59:37.474Z,41.40
2018-06-12T18:02:05.693Z,41.50
2018-06-12T18:04:33.276Z,41.80
2018-06-12T18:07:00.925Z,41.90
2018-06-12T18:09:28.573Z,42.20
2018-06-12T18:11:56.221Z,42.20
2018-06-12T18:14:23.931Z,42.50
2018-06-12T18:16:51.567Z,42.60
2018-06-12T18:19:19.207Z,42.80
2018-06-12T18:21:46.896Z,42.90
2018-06-12T18:24:14.616Z,43.00
2018-06-12T18:26:42.404Z,43.30
2018-06-12T18:29:10.055Z,43.40
2018-06-12T18:31:37.728Z,43.60
2018-06-12T18:34:05.429Z,43.70
2018-06-12T18:36:33.107Z,43.60
2018-06-12T18:39:00.750Z,43.70
2018-06-12T18:41:28.366Z,43.80
2018-06-12T18:43:56.382Z,43.80
2018-06-12T18:46:24.383Z,44.00
2018-06-12T18:48:52.125Z,44.00
2018-06-12T18:51:19.757Z,44.10
2018-06-12T18:56:15.076Z,44.30
2018-06-12T18:58:42.696Z,44.40
2018-06-12T19:01:10.292Z,44.60
2018-06-12T19:03:37.976Z,44.70
2018-06-12T19:06:06.502Z,45.40
2018-06-12T19:08:34.185Z,44.90
2018-06-12T19:11:01.842Z,45.00
2018-06-12T19:13:29.577Z,45.20
2018-06-12T19:15:57.235Z,45.40
2018-06-12T19:18:25.134Z,45.50
2018-06-12T19:20:53.124Z,45.60
2018-06-12T19:23:20.729Z,45.70
2018-06-12T19:25:48.336Z,45.80
2018-06-12T19:28:16.016Z,45.90
2018-06-12T19:30:43.707Z,46.00
2018-06-12T19:33:11.340Z,46.10
2018-06-12T19:35:38.937Z,46.20
2018-06-12T19:38:06.641Z,46.20
2018-06-12T19:40:34.272Z,46.20
2018-06-12T19:43:01.935Z,46.20
2018-06-12T19:45:29.926Z,46.30
2018-06-12T19:47:57.527Z,46.40
2018-06-12T19:50:25.107Z,46.40
2018-06-12T19:52:52.757Z,46.80
2018-06-12T19:55:20.381Z,46.40
2018-06-12T19:57:48.040Z,46.40
2018-06-12T20:00:15.715Z,46.40
2018-06-12T20:02:43.308Z,46.40
2018-06-12T20:05:10.957Z,46.50
2018-06-12T20:07:38.652Z,46.50
2018-06-12T20:10:06.352Z,46.50
2018-06-12T20:12:33.959Z,46.60
2018-06-12T20:15:01.642Z,46.60
2018-06-12T20:17:29.235Z,46.70
2018-06-12T20:19:56.875Z,46.80
2018-06-12T20:22:24.504Z,46.80
2018-06-12T20:24:52.146Z,46.90
2018-06-12T20:27:19.759Z,46.90
2018-06-12T20:29:47.355Z,47.00
2018-06-12T20:32:15.049Z,47.00
2018-06-12T20:34:42.655Z,47.00
2018-06-12T20:37:10.252Z,47.00
2018-06-12T20:39:37.907Z,47.20
2018-06-12T20:42:05.618Z,47.20
2018-06-12T20:44:33.239Z,47.20
2018-06-12T20:47:00.815Z,47.40
2018-06-12T20:49:28.475Z,47.40
2018-06-12T20:51:56.173Z,47.50
2018-06-12T20:54:23.803Z,47.60
2018-06-12T20:56:51.436Z,47.60
2018-06-12T20:59:19.056Z,47.00
2018-06-12T21:01:46.711Z,47.80
2018-06-12T21:04:14.368Z,47.70
2018-06-12T21:06:42.082Z,47.80
2018-06-12T21:09:09.714Z,47.90
2018-06-12T21:11:37.327Z,47.80
2018-06-12T21:14:05.009Z,48.00
2018-06-12T21:16:33.080Z,48.10
2018-06-12T21:19:00.679Z,48.20
2018-06-12T21:21:28.361Z,48.30
2018-06-12T21:23:56.020Z,48.40
2018-06-12T21:26:23.594Z,48.40
2018-06-12T21:28:51.252Z,48.40
2018-06-12T21:31:18.844Z,48.50
2018-06-12T21:33:46.493Z,48.60
2018-06-12T21:36:14.155Z,48.70
2018-06-12T21:38:41.808Z,48.80
2018-06-12T21:41:09.449Z,48.80
2018-06-12T21:43:37.128Z,48.80
2018-06-12T21:46:05.251Z,48.80
2018-06-12T21:48:32.891Z,48.80
2018-06-12T21:51:00.568Z,48.70
2018-06-12T21:53:28.267Z,48.80
2018-06-12T21:55:55.887Z,48.80
2018-06-12T21:58:23.487Z,48.90
2018-06-12T22:00:51.068Z,48.90
2018-06-12T22:03:18.765Z,48.90
2018-06-12T22:05:46.328Z,48.90
2018-06-12T22:08:14.813Z,49.00
2018-06-12T22:10:42.417Z,49.00
2018-06-12T22:13:10.020Z,49.10
2018-06-12T22:15:37.697Z,49.10
2018-06-12T22:18:06.256Z,49.20
2018-06-12T22:23:01.524Z,49.30
2018-06-12T22:25:29.176Z,49.30
2018-06-12T22:27:56.805Z,49.40
2018-06-12T22:30:24.448Z,49.50
2018-06-12T22:32:52.055Z,49.50
2018-06-12T22:37:47.427Z,49.70
2018-06-12T22:40:14.987Z,49.70
2018-06-12T22:42:42.637Z,49.90
2018-06-12T22:45:10.241Z,49.90
2018-06-12T22:47:37.847Z,50.00
2018-06-12T22:50:05.510Z,50.00
2018-06-12T22:52:33.109Z,50.10
2018-06-12T22:55:00.742Z,50.10
2018-06-12T22:57:28.319Z,50.10
2018-06-12T22:59:55.978Z,50.10
2018-06-12T23:02:23.595Z,50.20
2018-06-12T23:04:51.167Z,50.30
2018-06-12T23:07:18.797Z,50.40
2018-06-12T23:09:46.435Z,50.60
2018-06-12T23:12:14.011Z,50.70
2018-06-12T23:14:41.631Z,50.80
2018-06-12T23:17:09.235Z,51.60
2018-06-12T23:19:54.818Z,51.10
2018-06-12T23:22:22.368Z,51.10
2018-06-12T23:24:49.991Z,51.10
2018-06-12T23:27:17.575Z,51.20
2018-06-12T23:29:45.203Z,51.20
2018-06-12T23:32:12.808Z,51.30
2018-06-12T23:34:40.396Z,51.30
2018-06-12T23:37:08.089Z,51.30
2018-06-12T23:39:35.737Z,51.40
2018-06-12T23:42:03.413Z,51.30
2018-06-12T23:44:30.967Z,51.40
2018-06-12T23:46:58.565Z,51.50
2018-06-12T23:49:26.151Z,51.50
2018-06-12T23:51:53.869Z,51.60
2018-06-12T23:54:21.449Z,51.70
2018-06-12T23:59:16.752Z,51.80
